Point Judith, Rhode Island
Current Conditions -  °F | °C
As of 4:53 PM on Thursday 27 Nov 2014 (Local Time) from KUUU Reporting Station
Light Rain Light Rain  
Wind Chill: 34°   Ceiling: 1500
Heat Index: 38°   Visibility: 10mi
Dew Point: 33°   Wind: 5mph
Humidity: 83%   Direction: 330°NNW
Pressure: 29.96"   Gusts: NA
Location:  41.4075°N, 71.4775°W
Report Text: KUUU 272153Z AUTO 33004KT 10SM -RA OVC015 03/01 A2996 RMK AO2 RAB10 SLP145 P0000 T00330006
Loading
Personal Weather Stations






























Interactive Weather Map New forecast layout! Learn more

10-Day Weather Forecast

Advertisements
Track Severe Weather on mobile